sensor_id;sensor_type;location;lat;lon;timestamp;pressure;altitude;pressure_sealevel;temperature;humidity
7962;BME280;4026;43.652;24.906;2023-01-06T00:00:36;99196.16;;;8.94;82.12
7962;BME280;4026;43.652;24.906;2023-01-06T00:03:03;99194.84;;;9.01;81.95
7962;BME280;4026;43.652;24.906;2023-01-06T00:05:30;99203.34;;;9.02;81.68
7962;BME280;4026;43.652;24.906;2023-01-06T00:07:57;99208.22;;;9.05;81.84
7962;BME280;4026;43.652;24.906;2023-01-06T00:10:24;99216.38;;;9.10;81.38
7962;BME280;4026;43.652;24.906;2023-01-06T00:12:52;99233.97;;;9.15;80.60
7962;BME280;4026;43.652;24.906;2023-01-06T00:15:19;99243.22;;;9.16;80.67
7962;BME280;4026;43.652;24.906;2023-01-06T00:17:47;99242.63;;;9.12;80.82
7962;BME280;4026;43.652;24.906;2023-01-06T00:20:14;99236.44;;;9.16;80.42
7962;BME280;4026;43.652;24.906;2023-01-06T00:22:42;99252.09;;;9.10;80.97
7962;BME280;4026;43.652;24.906;2023-01-06T00:25:09;99258.59;;;9.01;80.99
7962;BME280;4026;43.652;24.906;2023-01-06T00:27:37;99251.97;;;8.99;81.40
7962;BME280;4026;43.652;24.906;2023-01-06T00:30:05;99259.38;;;8.89;81.24
7962;BME280;4026;43.652;24.906;2023-01-06T00:32:33;99271.94;;;8.92;81.40
7962;BME280;4026;43.652;24.906;2023-01-06T00:35:02;99259.13;;;8.79;82.04
7962;BME280;4026;43.652;24.906;2023-01-06T00:37:28;99267.06;;;8.75;82.50
7962;BME280;4026;43.652;24.906;2023-01-06T00:39:55;99279.38;;;8.68;82.40
7962;BME280;4026;43.652;24.906;2023-01-06T00:42:22;99277.00;;;8.65;82.77
7962;BME280;4026;43.652;24.906;2023-01-06T00:44:50;99281.00;;;8.55;83.05
7962;BME280;4026;43.652;24.906;2023-01-06T00:47:17;99289.59;;;8.54;83.28
7962;BME280;4026;43.652;24.906;2023-01-06T00:49:45;99287.41;;;8.48;83.26
7962;BME280;4026;43.652;24.906;2023-01-06T00:52:13;99284.41;;;8.41;83.59
7962;BME280;4026;43.652;24.906;2023-01-06T00:54:40;99292.28;;;8.36;84.01
7962;BME280;4026;43.652;24.906;2023-01-06T00:57:08;99284.91;;;8.32;84.11
7962;BME280;4026;43.652;24.906;2023-01-06T00:59:35;99286.31;;;8.23;84.41
7962;BME280;4026;43.652;24.906;2023-01-06T01:02:02;99285.19;;;8.13;85.05
7962;BME280;4026;43.652;24.906;2023-01-06T01:04:29;99292.47;;;8.05;85.31
7962;BME280;4026;43.652;24.906;2023-01-06T01:06:58;99286.28;;;7.94;86.08
7962;BME280;4026;43.652;24.906;2023-01-06T01:09:28;99300.72;;;7.94;86.01
7962;BME280;4026;43.652;24.906;2023-01-06T01:11:56;99311.75;;;7.94;86.42
7962;BME280;4026;43.652;24.906;2023-01-06T01:14:41;99320.09;;;7.97;85.96
7962;BME280;4026;43.652;24.906;2023-01-06T01:17:10;99318.47;;;7.96;86.25
7962;BME280;4026;43.652;24.906;2023-01-06T01:19:38;99324.28;;;7.83;86.98
7962;BME280;4026;43.652;24.906;2023-01-06T01:22:05;99326.81;;;7.83;87.04
7962;BME280;4026;43.652;24.906;2023-01-06T01:24:34;99328.91;;;7.77;87.08
7962;BME280;4026;43.652;24.906;2023-01-06T01:27:01;99317.06;;;7.76;87.57
7962;BME280;4026;43.652;24.906;2023-01-06T01:29:28;99313.78;;;7.74;87.61
7962;BME280;4026;43.652;24.906;2023-01-06T01:31:55;99310.03;;;7.65;87.95
7962;BME280;4026;43.652;24.906;2023-01-06T01:34:22;99308.41;;;7.64;87.87
7962;BME280;4026;43.652;24.906;2023-01-06T01:36:50;99308.91;;;7.55;88.41
7962;BME280;4026;43.652;24.906;2023-01-06T01:39:19;99316.91;;;7.48;88.78
7962;BME280;4026;43.652;24.906;2023-01-06T01:41:48;99316.16;;;7.46;88.83
7962;BME280;4026;43.652;24.906;2023-01-06T01:47:23;99310.28;;;7.30;90.05
7962;BME280;4026;43.652;24.906;2023-01-06T01:49:54;99315.53;;;7.27;90.26
7962;BME280;4026;43.652;24.906;2023-01-06T01:52:23;99305.53;;;7.24;90.33
7962;BME280;4026;43.652;24.906;2023-01-06T01:54:52;99311.63;;;7.21;90.67
7962;BME280;4026;43.652;24.906;2023-01-06T01:57:26;99306.94;;;7.14;90.75
7962;BME280;4026;43.652;24.906;2023-01-06T01:59:54;99310.94;;;7.18;90.66
7962;BME280;4026;43.652;24.906;2023-01-06T02:02:22;99303.47;;;7.15;90.95
7962;BME280;4026;43.652;24.906;2023-01-06T02:04:53;99315.38;;;7.14;90.78
7962;BME280;4026;43.652;24.906;2023-01-06T02:07:22;99313.94;;;7.10;91.15
7962;BME280;4026;43.652;24.906;2023-01-06T02:09:58;99314.41;;;7.17;91.04
7962;BME280;4026;43.652;24.906;2023-01-06T02:12:28;99311.63;;;7.21;90.79
7962;BME280;4026;43.652;24.906;2023-01-06T02:14:55;99316.19;;;7.15;91.05
7962;BME280;4026;43.652;24.906;2023-01-06T02:17:38;99312.59;;;7.19;90.77
7962;BME280;4026;43.652;24.906;2023-01-06T02:20:33;99312.94;;;7.13;90.84
7962;BME280;4026;43.652;24.906;2023-01-06T02:23:23;99314.75;;;7.11;91.51
7962;BME280;4026;43.652;24.906;2023-01-06T02:26:24;99308.84;;;7.10;90.81
7962;BME280;4026;43.652;24.906;2023-01-06T02:32:00;99308.56;;;7.15;90.67
7962;BME280;4026;43.652;24.906;2023-01-06T02:34:38;99322.94;;;7.16;90.54
7962;BME280;4026;43.652;24.906;2023-01-06T02:37:23;99315.22;;;7.17;90.23
7962;BME280;4026;43.652;24.906;2023-01-06T02:40:04;99308.00;;;7.10;90.67
7962;BME280;4026;43.652;24.906;2023-01-06T02:42:41;99313.94;;;7.10;90.67
7962;BME280;4026;43.652;24.906;2023-01-06T02:45:16;99322.59;;;7.06;90.56
7962;BME280;4026;43.652;24.906;2023-01-06T02:47:53;99328.84;;;7.00;90.93
7962;BME280;4026;43.652;24.906;2023-01-06T02:50:27;99330.50;;;7.01;90.88
7962;BME280;4026;43.652;24.906;2023-01-06T02:53:05;99325.56;;;6.98;90.91
7962;BME280;4026;43.652;24.906;2023-01-06T02:55:36;99340.16;;;6.95;91.24
7962;BME280;4026;43.652;24.906;2023-01-06T02:58:08;99344.19;;;6.99;91.26
7962;BME280;4026;43.652;24.906;2023-01-06T03:00:38;99343.53;;;6.95;91.33
7962;BME280;4026;43.652;24.906;2023-01-06T03:03:11;99341.47;;;7.02;90.87
7962;BME280;4026;43.652;24.906;2023-01-06T03:05:41;99339.06;;;6.83;91.38
7962;BME280;4026;43.652;24.906;2023-01-06T03:08:12;99348.84;;;6.75;92.33
7962;BME280;4026;43.652;24.906;2023-01-06T03:10:41;99339.13;;;6.66;92.54
7962;BME280;4026;43.652;24.906;2023-01-06T03:13:13;99341.28;;;6.73;92.29
7962;BME280;4026;43.652;24.906;2023-01-06T03:15:41;99332.03;;;6.88;91.96
7962;BME280;4026;43.652;24.906;2023-01-06T03:18:09;99351.97;;;6.96;91.82
7962;BME280;4026;43.652;24.906;2023-01-06T03:20:36;99356.69;;;6.86;91.63
7962;BME280;4026;43.652;24.906;2023-01-06T03:23:03;99367.03;;;6.83;91.80
7962;BME280;4026;43.652;24.906;2023-01-06T03:25:30;99370.06;;;6.74;92.37
7962;BME280;4026;43.652;24.906;2023-01-06T03:27:57;99372.00;;;6.69;92.80
7962;BME280;4026;43.652;24.906;2023-01-06T03:30:27;99369.31;;;6.72;92.56
7962;BME280;4026;43.652;24.906;2023-01-06T03:33:02;99374.47;;;6.70;92.44
7962;BME280;4026;43.652;24.906;2023-01-06T03:35:40;99380.16;;;6.75;92.51
7962;BME280;4026;43.652;24.906;2023-01-06T03:38:17;99377.19;;;6.67;92.52
7962;BME280;4026;43.652;24.906;2023-01-06T03:40:52;99373.66;;;6.70;92.88
7962;BME280;4026;43.652;24.906;2023-01-06T03:43:24;99378.16;;;6.65;93.21
7962;BME280;4026;43.652;24.906;2023-01-06T03:45:59;99384.38;;;6.59;93.65
7962;BME280;4026;43.652;24.906;2023-01-06T03:48:38;99383.72;;;6.55;93.87
7962;BME280;4026;43.652;24.906;2023-01-06T03:51:20;99389.84;;;6.51;94.30
7962;BME280;4026;43.652;24.906;2023-01-06T03:53:57;99393.22;;;6.52;94.37
7962;BME280;4026;43.652;24.906;2023-01-06T03:56:28;99396.72;;;6.49;94.46
7962;BME280;4026;43.652;24.906;2023-01-06T03:58:58;99400.75;;;6.53;94.79
7962;BME280;4026;43.652;24.906;2023-01-06T04:01:27;99387.75;;;6.42;95.02
7962;BME280;4026;43.652;24.906;2023-01-06T04:03:55;99396.28;;;6.41;95.13
7962;BME280;4026;43.652;24.906;2023-01-06T04:06:23;99398.72;;;6.43;95.27
7962;BME280;4026;43.652;24.906;2023-01-06T04:08:50;99402.13;;;6.43;95.26
7962;BME280;4026;43.652;24.906;2023-01-06T04:11:17;99404.03;;;6.55;95.22
7962;BME280;4026;43.652;24.906;2023-01-06T04:14:02;99402.44;;;6.70;94.15
7962;BME280;4026;43.652;24.906;2023-01-06T04:16:29;99403.41;;;6.68;94.12
7962;BME280;4026;43.652;24.906;2023-01-06T04:18:55;99411.13;;;6.66;94.05
7962;BME280;4026;43.652;24.906;2023-01-06T04:21:24;99415.84;;;6.56;94.46
7962;BME280;4026;43.652;24.906;2023-01-06T04:23:50;99416.81;;;6.54;94.80
7962;BME280;4026;43.652;24.906;2023-01-06T04:26:17;99424.66;;;6.49;94.92
7962;BME280;4026;43.652;24.906;2023-01-06T04:28:44;99426.47;;;6.47;95.04
7962;BME280;4026;43.652;24.906;2023-01-06T04:31:11;99428.25;;;6.45;95.07
7962;BME280;4026;43.652;24.906;2023-01-06T04:33:38;99431.84;;;6.41;95.05
7962;BME280;4026;43.652;24.906;2023-01-06T04:36:06;99433.94;;;6.33;95.21
7962;BME280;4026;43.652;24.906;2023-01-06T04:38:35;99435.88;;;6.28;95.33
7962;BME280;4026;43.652;24.906;2023-01-06T04:41:02;99437.69;;;6.26;95.69
7962;BME280;4026;43.652;24.906;2023-01-06T04:43:29;99436.31;;;6.19;96.05
7962;BME280;4026;43.652;24.906;2023-01-06T04:45:56;99434.53;;;6.21;95.78
7962;BME280;4026;43.652;24.906;2023-01-06T04:48:24;99431.03;;;6.23;96.19
7962;BME280;4026;43.652;24.906;2023-01-06T04:50:59;99429.16;;;6.27;95.94
7962;BME280;4026;43.652;24.906;2023-01-06T04:53:26;99417.53;;;6.23;96.18
7962;BME280;4026;43.652;24.906;2023-01-06T04:55:54;99412.59;;;6.20;96.19
7962;BME280;4026;43.652;24.906;2023-01-06T04:58:21;99417.78;;;6.17;96.28
7962;BME280;4026;43.652;24.906;2023-01-06T05:00:48;99414.13;;;6.22;96.45
7962;BME280;4026;43.652;24.906;2023-01-06T05:03:14;99422.44;;;6.26;95.85
7962;BME280;4026;43.652;24.906;2023-01-06T05:05:41;99427.94;;;6.34;96.05
7962;BME280;4026;43.652;24.906;2023-01-06T05:08:08;99428.78;;;6.34;95.52
7962;BME280;4026;43.652;24.906;2023-01-06T05:10:35;99443.94;;;6.36;95.32
7962;BME280;4026;43.652;24.906;2023-01-06T05:13:03;99447.22;;;6.38;95.52
7962;BME280;4026;43.652;24.906;2023-01-06T05:15:30;99445.59;;;6.37;95.25
7962;BME280;4026;43.652;24.906;2023-01-06T05:17:57;99466.19;;;6.31;95.29
7962;BME280;4026;43.652;24.906;2023-01-06T05:20:24;99467.69;;;6.35;95.42
7962;BME280;4026;43.652;24.906;2023-01-06T05:22:50;99459.78;;;6.24;95.36
7962;BME280;4026;43.652;24.906;2023-01-06T05:25:17;99462.47;;;6.21;95.47
7962;BME280;4026;43.652;24.906;2023-01-06T05:27:44;99465.00;;;6.21;95.61
7962;BME280;4026;43.652;24.906;2023-01-06T05:30:13;99469.41;;;6.17;95.63
7962;BME280;4026;43.652;24.906;2023-01-06T05:32:40;99481.50;;;6.12;95.90
7962;BME280;4026;43.652;24.906;2023-01-06T05:35:07;99475.91;;;6.05;95.96
7962;BME280;4026;43.652;24.906;2023-01-06T05:37:34;99482.00;;;6.01;96.46
7962;BME280;4026;43.652;24.906;2023-01-06T05:40:01;99481.13;;;6.02;96.34
7962;BME280;4026;43.652;24.906;2023-01-06T05:42:28;99484.06;;;5.93;96.51
7962;BME280;4026;43.652;24.906;2023-01-06T05:44:55;99490.84;;;5.93;96.69
7962;BME280;4026;43.652;24.906;2023-01-06T05:47:23;99499.28;;;5.93;96.80
7962;BME280;4026;43.652;24.906;2023-01-06T05:49:50;99494.41;;;5.88;96.84
7962;BME280;4026;43.652;24.906;2023-01-06T05:52:16;99496.28;;;5.85;97.26
7962;BME280;4026;43.652;24.906;2023-01-06T05:54:43;99495.38;;;5.86;97.78
7962;BME280;4026;43.652;24.906;2023-01-06T05:57:11;99494.41;;;5.88;97.41
7962;BME280;4026;43.652;24.906;2023-01-06T05:59:38;99496.16;;;5.88;97.16
7962;BME280;4026;43.652;24.906;2023-01-06T06:02:04;99501.88;;;5.92;97.20
7962;BME280;4026;43.652;24.906;2023-01-06T06:04:33;99500.06;;;5.76;97.39
7962;BME280;4026;43.652;24.906;2023-01-06T06:07:00;99506.25;;;5.71;97.81
7962;BME280;4026;43.652;24.906;2023-01-06T06:09:26;99505.00;;;5.60;98.30
7962;BME280;4026;43.652;24.906;2023-01-06T06:11:53;99503.38;;;5.59;98.68
7962;BME280;4026;43.652;24.906;2023-01-06T06:14:20;99506.09;;;5.55;99.00
7962;BME280;4026;43.652;24.906;2023-01-06T06:16:47;99509.44;;;5.55;99.41
7962;BME280;4026;43.652;24.906;2023-01-06T06:19:14;99500.06;;;5.57;99.58
7962;BME280;4026;43.652;24.906;2023-01-06T06:21:42;99505.75;;;5.62;99.77
7962;BME280;4026;43.652;24.906;2023-01-06T06:24:09;99509.94;;;5.63;99.70
7962;BME280;4026;43.652;24.906;2023-01-06T06:26:36;99514.00;;;5.67;99.80
7962;BME280;4026;43.652;24.906;2023-01-06T06:29:04;99505.34;;;5.72;99.75
7962;BME280;4026;43.652;24.906;2023-01-06T06:31:31;99510.06;;;5.79;99.48
7962;BME280;4026;43.652;24.906;2023-01-06T06:33:59;99518.97;;;5.88;99.23
7962;BME280;4026;43.652;24.906;2023-01-06T06:36:27;99517.13;;;5.92;98.85
7962;BME280;4026;43.652;24.906;2023-01-06T06:38:55;99523.56;;;5.99;98.65
7962;BME280;4026;43.652;24.906;2023-01-06T06:41:24;99528.44;;;6.03;98.49
7962;BME280;4026;43.652;24.906;2023-01-06T06:43:51;99525.13;;;6.20;97.84
7962;BME280;4026;43.652;24.906;2023-01-06T06:46:19;99539.25;;;6.26;97.08
7962;BME280;4026;43.652;24.906;2023-01-06T06:48:46;99541.88;;;6.42;96.32
7962;BME280;4026;43.652;24.906;2023-01-06T06:51:15;99547.47;;;6.48;95.99
7962;BME280;4026;43.652;24.906;2023-01-06T06:53:44;99551.53;;;6.52;95.57
7962;BME280;4026;43.652;24.906;2023-01-06T06:56:13;99551.97;;;6.61;95.47
7962;BME280;4026;43.652;24.906;2023-01-06T06:58:41;99554.22;;;6.67;95.57
7962;BME280;4026;43.652;24.906;2023-01-06T07:01:09;99553.75;;;6.76;95.05
7962;BME280;4026;43.652;24.906;2023-01-06T07:03:37;99552.25;;;6.89;94.57
7962;BME280;4026;43.652;24.906;2023-01-06T07:06:05;99550.59;;;7.06;93.67
7962;BME280;4026;43.652;24.906;2023-01-06T07:08:32;99552.94;;;7.26;92.34
7962;BME280;4026;43.652;24.906;2023-01-06T07:11:00;99560.53;;;7.43;91.00
7962;BME280;4026;43.652;24.906;2023-01-06T07:13:28;99571.41;;;7.63;90.36
7962;BME280;4026;43.652;24.906;2023-01-06T07:15:55;99583.25;;;7.80;89.14
7962;BME280;4026;43.652;24.906;2023-01-06T07:18:22;99586.53;;;7.98;88.70
7962;BME280;4026;43.652;24.906;2023-01-06T07:20:50;99596.31;;;8.05;88.36
7962;BME280;4026;43.652;24.906;2023-01-06T07:23:18;99595.56;;;8.19;87.56
7962;BME280;4026;43.652;24.906;2023-01-06T07:25:50;99607.28;;;8.37;86.94
7962;BME280;4026;43.652;24.906;2023-01-06T07:28:17;99606.91;;;8.61;85.94
7962;BME280;4026;43.652;24.906;2023-01-06T07:30:46;99609.47;;;8.75;85.03
7962;BME280;4026;43.652;24.906;2023-01-06T07:33:13;99601.94;;;8.74;84.68
7962;BME280;4026;43.652;24.906;2023-01-06T07:35:40;99605.28;;;8.74;84.54
7962;BME280;4026;43.652;24.906;2023-01-06T07:38:07;99600.59;;;8.82;83.92
7962;BME280;4026;43.652;24.906;2023-01-06T07:40:35;99608.44;;;8.94;83.64
7962;BME280;4026;43.652;24.906;2023-01-06T07:43:03;99615.75;;;9.00;82.94
7962;BME280;4026;43.652;24.906;2023-01-06T07:45:30;99620.88;;;9.14;82.89
7962;BME280;4026;43.652;24.906;2023-01-06T07:47:59;99629.28;;;9.16;82.67
7962;BME280;4026;43.652;24.906;2023-01-06T07:50:26;99638.94;;;9.25;82.47
7962;BME280;4026;43.652;24.906;2023-01-06T07:52:56;99638.41;;;9.35;81.84
7962;BME280;4026;43.652;24.906;2023-01-06T07:55:23;99646.94;;;9.34;80.96
7962;BME280;4026;43.652;24.906;2023-01-06T07:57:49;99647.63;;;9.51;80.45
7962;BME280;4026;43.652;24.906;2023-01-06T08:00:17;99647.34;;;9.56;80.30
7962;BME280;4026;43.652;24.906;2023-01-06T08:02:43;99646.06;;;9.49;78.94
7962;BME280;4026;43.652;24.906;2023-01-06T08:05:12;99653.56;;;9.52;79.07
7962;BME280;4026;43.652;24.906;2023-01-06T08:07:39;99658.47;;;9.69;78.71
7962;BME280;4026;43.652;24.906;2023-01-06T08:10:06;99659.56;;;9.80;77.74
7962;BME280;4026;43.652;24.906;2023-01-06T08:12:33;99650.16;;;9.94;77.03
7962;BME280;4026;43.652;24.906;2023-01-06T08:15:00;99652.63;;;10.10;77.46
7962;BME280;4026;43.652;24.906;2023-01-06T08:17:27;99652.97;;;10.33;75.82
7962;BME280;4026;43.652;24.906;2023-01-06T08:19:55;99659.13;;;10.43;74.95
7962;BME280;4026;43.652;24.906;2023-01-06T08:22:23;99656.31;;;10.48;74.68
7962;BME280;4026;43.652;24.906;2023-01-06T08:24:50;99663.00;;;10.36;73.72
7962;BME280;4026;43.652;24.906;2023-01-06T08:27:16;99677.31;;;10.38;73.70
7962;BME280;4026;43.652;24.906;2023-01-06T08:29:44;99665.13;;;10.56;73.59
7962;BME280;4026;43.652;24.906;2023-01-06T08:32:12;99668.00;;;10.64;72.50
7962;BME280;4026;43.652;24.906;2023-01-06T08:34:39;99667.72;;;10.69;72.56
7962;BME280;4026;43.652;24.906;2023-01-06T08:37:06;99669.66;;;10.65;72.84
7962;BME280;4026;43.652;24.906;2023-01-06T08:39:34;99672.03;;;11.08;71.30
7962;BME280;4026;43.652;24.906;2023-01-06T08:42:01;99667.53;;;11.25;70.62
7962;BME280;4026;43.652;24.906;2023-01-06T08:44:28;99671.84;;;11.12;70.29
7962;BME280;4026;43.652;24.906;2023-01-06T08:46:54;99675.53;;;11.33;68.99
7962;BME280;4026;43.652;24.906;2023-01-06T08:49:21;99661.41;;;11.15;69.93
7962;BME280;4026;43.652;24.906;2023-01-06T08:51:48;99662.63;;;11.22;70.47
7962;BME280;4026;43.652;24.906;2023-01-06T08:54:15;99674.91;;;11.42;69.45
7962;BME280;4026;43.652;24.906;2023-01-06T08:56:43;99660.50;;;11.41;68.75
7962;BME280;4026;43.652;24.906;2023-01-06T08:59:13;99654.84;;;11.23;69.50
7962;BME280;4026;43.652;24.906;2023-01-06T09:01:40;99655.66;;;11.24;69.43
7962;BME280;4026;43.652;24.906;2023-01-06T09:04:08;99645.84;;;11.18;70.27
7962;BME280;4026;43.652;24.906;2023-01-06T09:06:36;99644.63;;;11.23;69.43
7962;BME280;4026;43.652;24.906;2023-01-06T09:09:04;99635.41;;;11.21;69.78
7962;BME280;4026;43.652;24.906;2023-01-06T09:11:31;99636.19;;;11.34;69.56
7962;BME280;4026;43.652;24.906;2023-01-06T09:14:00;99639.09;;;11.29;68.54
7962;BME280;4026;43.652;24.906;2023-01-06T09:16:27;99634.97;;;11.27;68.24
7962;BME280;4026;43.652;24.906;2023-01-06T09:18:53;99629.66;;;11.30;68.05
7962;BME280;4026;43.652;24.906;2023-01-06T09:21:21;99623.72;;;11.55;67.91
7962;BME280;4026;43.652;24.906;2023-01-06T09:23:49;99625.53;;;11.78;67.43
7962;BME280;4026;43.652;24.906;2023-01-06T09:26:16;99619.81;;;11.62;66.42
7962;BME280;4026;43.652;24.906;2023-01-06T09:28:44;99612.94;;;11.88;65.57
7962;BME280;4026;43.652;24.906;2023-01-06T09:31:13;99623.06;;;11.77;65.19
7962;BME280;4026;43.652;24.906;2023-01-06T09:33:42;99617.53;;;11.83;64.70
7962;BME280;4026;43.652;24.906;2023-01-06T09:36:09;99618.66;;;11.79;64.35
7962;BME280;4026;43.652;24.906;2023-01-06T09:38:36;99618.44;;;11.95;63.64
7962;BME280;4026;43.652;24.906;2023-01-06T09:41:16;99608.09;;;11.96;63.36
7962;BME280;4026;43.652;24.906;2023-01-06T09:43:50;99618.72;;;12.16;62.68
7962;BME280;4026;43.652;24.906;2023-01-06T09:46:23;99613.31;;;12.32;61.40
7962;BME280;4026;43.652;24.906;2023-01-06T09:48:56;99618.81;;;12.38;61.51
7962;BME280;4026;43.652;24.906;2023-01-06T09:51:26;99620.88;;;12.33;60.99
7962;BME280;4026;43.652;24.906;2023-01-06T09:53:58;99633.31;;;12.51;59.98
7962;BME280;4026;43.652;24.906;2023-01-06T09:56:26;99624.84;;;12.97;59.13
7962;BME280;4026;43.652;24.906;2023-01-06T09:58:59;99636.91;;;13.07;58.54
7962;BME280;4026;43.652;24.906;2023-01-06T10:01:35;99638.63;;;12.96;59.46
7962;BME280;4026;43.652;24.906;2023-01-06T10:04:03;99632.91;;;13.27;58.01
7962;BME280;4026;43.652;24.906;2023-01-06T10:06:33;99638.31;;;13.47;57.00
7962;BME280;4026;43.652;24.906;2023-01-06T10:09:09;99642.28;;;13.62;56.51
7962;BME280;4026;43.652;24.906;2023-01-06T10:11:48;99643.88;;;13.41;56.20
7962;BME280;4026;43.652;24.906;2023-01-06T10:14:24;99631.88;;;12.95;57.68
7962;BME280;4026;43.652;24.906;2023-01-06T10:17:09;99641.16;;;12.84;58.04
7962;BME280;4026;43.652;24.906;2023-01-06T10:19:51;99638.31;;;13.11;57.33
7962;BME280;4026;43.652;24.906;2023-01-06T10:22:25;99648.34;;;13.03;57.68
7962;BME280;4026;43.652;24.906;2023-01-06T10:24:59;99634.25;;;13.20;57.43
7962;BME280;4026;43.652;24.906;2023-01-06T10:27:34;99640.59;;;13.27;56.97
7962;BME280;4026;43.652;24.906;2023-01-06T10:30:12;99635.25;;;13.42;57.62
7962;BME280;4026;43.652;24.906;2023-01-06T10:32:43;99639.75;;;13.16;56.48
7962;BME280;4026;43.652;24.906;2023-01-06T10:35:12;99623.34;;;13.63;56.21
7962;BME280;4026;43.652;24.906;2023-01-06T10:37:42;99622.44;;;13.53;56.27
7962;BME280;4026;43.652;24.906;2023-01-06T10:40:17;99630.56;;;13.80;55.43
7962;BME280;4026;43.652;24.906;2023-01-06T10:42:46;99614.91;;;13.95;55.30
7962;BME280;4026;43.652;24.906;2023-01-06T10:45:31;99618.34;;;13.50;55.29
7962;BME280;4026;43.652;24.906;2023-01-06T10:48:02;99611.91;;;13.33;55.25
7962;BME280;4026;43.652;24.906;2023-01-06T10:50:32;99616.28;;;13.09;56.41
7962;BME280;4026;43.652;24.906;2023-01-06T10:52:59;99604.44;;;13.30;56.87
7962;BME280;4026;43.652;24.906;2023-01-06T10:55:39;99594.97;;;13.42;55.58
7962;BME280;4026;43.652;24.906;2023-01-06T10:58:15;99602.31;;;13.58;55.79
7962;BME280;4026;43.652;24.906;2023-01-06T11:00:59;99596.03;;;13.40;56.61
7962;BME280;4026;43.652;24.906;2023-01-06T11:03:27;99601.41;;;13.48;55.87
7962;BME280;4026;43.652;24.906;2023-01-06T11:06:09;99601.03;;;13.52;56.48
7962;BME280;4026;43.652;24.906;2023-01-06T11:08:40;99593.22;;;13.54;55.19
7962;BME280;4026;43.652;24.906;2023-01-06T11:11:12;99595.22;;;13.39;55.36
7962;BME280;4026;43.652;24.906;2023-01-06T11:13:40;99595.06;;;13.41;55.84
7962;BME280;4026;43.652;24.906;2023-01-06T11:16:17;99590.19;;;13.49;54.97
7962;BME280;4026;43.652;24.906;2023-01-06T11:18:52;99599.03;;;13.90;55.33
7962;BME280;4026;43.652;24.906;2023-01-06T11:21:19;99591.69;;;13.63;54.84
7962;BME280;4026;43.652;24.906;2023-01-06T11:23:47;99595.06;;;13.74;55.06
7962;BME280;4026;43.652;24.906;2023-01-06T11:26:17;99603.13;;;13.70;54.92
7962;BME280;4026;43.652;24.906;2023-01-06T11:28:45;99602.56;;;13.66;54.06
7962;BME280;4026;43.652;24.906;2023-01-06T11:31:18;99603.50;;;13.65;54.89
7962;BME280;4026;43.652;24.906;2023-01-06T11:33:48;99600.44;;;13.38;55.93
7962;BME280;4026;43.652;24.906;2023-01-06T11:36:19;99602.47;;;12.99;56.11
7962;BME280;4026;43.652;24.906;2023-01-06T11:38:49;99599.19;;;12.97;55.86
7962;BME280;4026;43.652;24.906;2023-01-06T11:41:25;99596.44;;;13.11;56.00
7962;BME280;4026;43.652;24.906;2023-01-06T11:43:55;99610.88;;;13.01;55.11
7962;BME280;4026;43.652;24.906;2023-01-06T11:46:27;99601.56;;;13.11;55.46
7962;BME280;4026;43.652;24.906;2023-01-06T11:48:59;99608.13;;;13.15;55.73
7962;BME280;4026;43.652;24.906;2023-01-06T11:51:45;99614.13;;;13.03;54.77
7962;BME280;4026;43.652;24.906;2023-01-06T11:54:30;99611.22;;;12.96;55.41
7962;BME280;4026;43.652;24.906;2023-01-06T11:56:59;99601.31;;;13.03;55.82
7962;BME280;4026;43.652;24.906;2023-01-06T11:59:28;99608.56;;;12.74;56.30
7962;BME280;4026;43.652;24.906;2023-01-06T12:01:57;99610.63;;;12.93;56.35
7962;BME280;4026;43.652;24.906;2023-01-06T12:04:29;99610.09;;;13.23;55.06
7962;BME280;4026;43.652;24.906;2023-01-06T12:07:06;99617.22;;;13.19;54.76
7962;BME280;4026;43.652;24.906;2023-01-06T12:09:37;99615.63;;;12.83;55.52
7962;BME280;4026;43.652;24.906;2023-01-06T12:12:06;99615.28;;;12.87;55.85
7962;BME280;4026;43.652;24.906;2023-01-06T12:14:37;99614.38;;;13.00;55.13
7962;BME280;4026;43.652;24.906;2023-01-06T12:17:09;99604.25;;;13.09;55.71
7962;BME280;4026;43.652;24.906;2023-01-06T12:19:42;99611.13;;;12.98;54.95
7962;BME280;4026;43.652;24.906;2023-01-06T12:22:19;99612.88;;;13.08;55.16
7962;BME280;4026;43.652;24.906;2023-01-06T12:24:49;99614.00;;;12.93;55.30
7962;BME280;4026;43.652;24.906;2023-01-06T12:27:24;99624.81;;;12.74;55.25
7962;BME280;4026;43.652;24.906;2023-01-06T12:29:56;99626.88;;;12.69;55.86
7962;BME280;4026;43.652;24.906;2023-01-06T12:32:25;99625.56;;;12.99;55.63
7962;BME280;4026;43.652;24.906;2023-01-06T12:34:58;99621.84;;;13.03;55.57
7962;BME280;4026;43.652;24.906;2023-01-06T12:37:31;99636.25;;;12.81;55.77
7962;BME280;4026;43.652;24.906;2023-01-06T12:40:07;99633.41;;;12.73;55.48
7962;BME280;4026;43.652;24.906;2023-01-06T12:42:43;99631.06;;;12.70;56.34
7962;BME280;4026;43.652;24.906;2023-01-06T12:45:14;99645.75;;;12.68;56.51
7962;BME280;4026;43.652;24.906;2023-01-06T12:47:45;99626.94;;;12.56;56.72
7962;BME280;4026;43.652;24.906;2023-01-06T12:50:18;99636.81;;;12.50;56.95
7962;BME280;4026;43.652;24.906;2023-01-06T12:52:51;99629.41;;;12.58;57.25
7962;BME280;4026;43.652;24.906;2023-01-06T12:55:26;99622.59;;;12.45;56.81
7962;BME280;4026;43.652;24.906;2023-01-06T12:58:01;99619.03;;;12.35;58.21
7962;BME280;4026;43.652;24.906;2023-01-06T13:00:41;99627.44;;;12.37;57.79
7962;BME280;4026;43.652;24.906;2023-01-06T13:03:40;99623.94;;;12.38;57.81
7962;BME280;4026;43.652;24.906;2023-01-06T13:06:23;99628.03;;;12.17;57.23
7962;BME280;4026;43.652;24.906;2023-01-06T13:09:08;99634.09;;;12.16;58.21
7962;BME280;4026;43.652;24.906;2023-01-06T13:14:39;99637.81;;;11.99;58.32
7962;BME280;4026;43.652;24.906;2023-01-06T13:17:13;99642.63;;;12.04;58.50
7962;BME280;4026;43.652;24.906;2023-01-06T13:19:47;99637.00;;;11.98;58.39
7962;BME280;4026;43.652;24.906;2023-01-06T13:22:19;99644.59;;;12.00;58.12
7962;BME280;4026;43.652;24.906;2023-01-06T13:25:17;99643.97;;;11.96;58.63
7962;BME280;4026;43.652;24.906;2023-01-06T13:28:03;99644.63;;;11.87;58.44
7962;BME280;4026;43.652;24.906;2023-01-06T13:30:57;99645.00;;;11.68;58.70
7962;BME280;4026;43.652;24.906;2023-01-06T13:34:07;99646.56;;;11.45;58.11
7962;BME280;4026;43.652;24.906;2023-01-06T13:39:39;99656.47;;;11.37;59.47
7962;BME280;4026;43.652;24.906;2023-01-06T13:42:13;99666.22;;;11.32;58.80
7962;BME280;4026;43.652;24.906;2023-01-06T13:44:42;99670.81;;;11.27;59.52
7962;BME280;4026;43.652;24.906;2023-01-06T13:47:12;99689.03;;;11.22;59.66